Time,TemperatureF,DewpointF,PressureIn,WindDirection,WindDirectionDegrees,WindSpeedMPH,WindSpeedGustMPH,Humidity,HourlyPrecipIn,Conditions,Clouds,dailyrainin,SolarRadiationWatts/m^2,SoftwareType,DateUTC
2013-06-06 00:02:00,86.0,19.0,29.89,NW,306,7.0,11.0,8,-99.99,,,-99.99,0.000000,,2013-06-06 06:02:00,
2013-06-06 00:12:00,86.0,18.0,29.89,NW,308,8.0,14.0,8,-99.99,,,-99.99,0.000000,,2013-06-06 06:12:00,
2013-06-06 00:22:00,84.0,18.0,29.89,NW,315,8.0,11.0,8,-99.99,,,-99.99,0.000000,,2013-06-06 06:22:00,
2013-06-06 00:32:00,83.0,18.0,29.89,South,170,6.0,10.0,8,-99.99,,,-99.99,0.000000,,2013-06-06 06:32:00,
2013-06-06 00:42:00,83.0,18.0,29.89,South,170,6.0,10.0,8,-99.99,,,-99.99,0.000000,,2013-06-06 06:42:00,
2013-06-06 00:52:00,78.0,17.0,29.89,ESE,108,5.0,11.0,9,-99.99,,,-99.99,0.000000,,2013-06-06 06:52:00,
2013-06-06 01:02:00,78.0,17.0,29.89,ESE,108,5.0,11.0,9,-99.99,,,-99.99,0.000000,,2013-06-06 07:02:00,
2013-06-06 01:12:00,77.0,17.0,29.89,ESE,112,8.0,15.0,10,-99.99,,,-99.99,0.000000,,2013-06-06 07:12:00,
2013-06-06 01:22:00,75.0,21.0,29.90,ESE,112,15.0,24.0,13,-99.99,,,-99.99,0.000000,,2013-06-06 07:22:00,
2013-06-06 01:32:00,75.0,21.0,29.90,ESE,112,15.0,24.0,13,-99.99,,,-99.99,0.000000,,2013-06-06 07:32:00,
2013-06-06 01:42:00,74.0,35.0,29.90,ESE,118,12.0,19.0,23,-99.99,,,-99.99,0.000000,,2013-06-06 07:42:00,
2013-06-06 01:52:00,74.0,41.0,29.90,ESE,120,14.0,21.0,29,-99.99,,,-99.99,0.000000,,2013-06-06 07:52:00,
2013-06-06 02:02:00,74.0,41.0,29.90,ESE,120,14.0,21.0,29,-99.99,,,-99.99,0.000000,,2013-06-06 08:02:00,
2013-06-06 02:12:00,74.0,41.0,29.91,SE,143,8.0,17.0,30,-99.99,,,-99.99,0.000000,,2013-06-06 08:12:00,
2013-06-06 02:22:00,72.0,36.0,29.92,WSW,245,8.0,11.0,27,-99.99,,,-99.99,0.000000,,2013-06-06 08:22:00,
2013-06-06 02:32:00,73.0,40.0,29.93,SW,221,9.0,14.0,30,-99.99,,,-99.99,0.000000,,2013-06-06 08:32:00,
2013-06-06 02:52:00,74.0,42.0,29.92,South,190,8.0,13.0,31,-99.99,,,-99.99,0.000000,,2013-06-06 08:52:00,
2013-06-06 03:02:00,74.0,42.0,29.92,South,190,8.0,13.0,31,-99.99,,,-99.99,0.000000,,2013-06-06 09:02:00,
2013-06-06 03:12:00,73.0,42.0,29.92,SSW,205,6.0,10.0,32,-99.99,,,-99.99,0.000000,,2013-06-06 09:12:00,
2013-06-06 03:22:00,73.0,42.0,29.93,SSW,211,6.0,10.0,32,-99.99,,,-99.99,0.000000,,2013-06-06 09:22:00,
2013-06-06 03:33:00,73.0,42.0,29.93,SSW,211,6.0,10.0,32,-99.99,,,-99.99,0.000000,,2013-06-06 09:33:00,
2013-06-06 03:43:00,73.0,42.0,29.93,South,190,6.0,10.0,33,-99.99,,,-99.99,0.000000,,2013-06-06 09:43:00,
2013-06-06 03:53:00,73.0,42.0,29.93,South,190,6.0,10.0,33,-99.99,,,-99.99,0.000000,,2013-06-06 09:53:00,
2013-06-06 04:03:00,73.0,42.0,29.93,South,190,6.0,10.0,33,-99.99,,,-99.99,0.000000,,2013-06-06 10:03:00,
2013-06-06 04:12:00,71.0,43.0,29.93,SSW,195,3.0,6.0,36,-99.99,,,-99.99,0.000000,,2013-06-06 10:12:00,
2013-06-06 04:23:00,72.0,43.0,29.93,SSW,202,1.0,5.0,35,-99.99,,,-99.99,0.000000,,2013-06-06 10:23:00,
2013-06-06 04:33:00,72.0,43.0,29.94,SSW,208,0.0,3.0,35,-99.99,,,-99.99,0.000000,,2013-06-06 10:33:00,
2013-06-06 04:42:00,72.0,43.0,29.94,SSW,208,0.0,3.0,35,-99.99,,,-99.99,0.000000,,2013-06-06 10:42:00,
2013-06-06 04:53:00,71.0,44.0,29.94,North,0,0.0,0.0,36,-99.99,,,-99.99,0.000000,,2013-06-06 10:53:00,
2013-06-06 05:02:00,71.0,44.0,29.94,North,0,0.0,0.0,36,-99.99,,,-99.99,0.000000,,2013-06-06 11:02:00,
2013-06-06 05:12:00,72.0,44.0,29.94,ESE,116,3.0,8.0,37,-99.99,,,-99.99,0.000000,,2013-06-06 11:12:00,
2013-06-06 05:22:00,69.0,45.0,29.95,ESE,111,7.0,9.0,41,-99.99,,,-99.99,0.000000,,2013-06-06 11:22:00,
2013-06-06 05:32:00,69.0,45.0,29.95,ESE,111,7.0,9.0,41,-99.99,,,-99.99,0.000000,,2013-06-06 11:32:00,
2013-06-06 05:42:00,68.0,45.0,29.95,ESE,106,6.0,8.0,44,-99.99,,,-99.99,0.000000,,2013-06-06 11:42:00,
2013-06-06 05:52:00,68.0,45.0,29.96,ESE,122,6.0,12.0,44,-99.99,,,-99.99,0.000000,,2013-06-06 11:52:00,
2013-06-06 06:02:00,68.0,45.0,29.96,ESE,122,6.0,12.0,44,-99.99,,,-99.99,0.000000,,2013-06-06 12:02:00,
2013-06-06 06:12:00,68.0,45.0,29.97,SE,131,9.0,13.0,44,-99.99,,,-99.99,0.000000,,2013-06-06 12:12:00,
2013-06-06 06:23:00,68.0,45.0,29.97,SSE,156,7.0,11.0,43,-99.99,,,-99.99,1.390000,,2013-06-06 12:23:00,
2013-06-06 06:33:00,68.0,45.0,29.97,SSE,156,7.0,11.0,43,-99.99,,,-99.99,1.390000,,2013-06-06 12:33:00,
2013-06-06 06:42:00,67.0,45.0,29.98,South,187,6.0,10.0,43,-99.99,,,-99.99,6.970000,,2013-06-06 12:42:00,
2013-06-06 06:53:00,65.0,44.0,29.99,SW,219,6.0,8.0,45,-99.99,,,-99.99,21.620001,,2013-06-06 12:53:00,
2013-06-06 07:03:00,65.0,44.0,29.99,SW,219,6.0,8.0,45,-99.99,,,-99.99,21.620001,,2013-06-06 13:03:00,
2013-06-06 07:13:00,65.0,44.0,29.99,SSW,213,4.0,8.0,45,-99.99,,,-99.99,50.209999,,2013-06-06 13:13:00,
2013-06-06 07:22:00,67.0,44.0,29.99,SSW,196,3.0,6.0,43,-99.99,,,-99.99,92.750000,,2013-06-06 13:22:00,
2013-06-06 07:32:00,67.0,44.0,29.99,SSW,196,3.0,6.0,43,-99.99,,,-99.99,92.750000,,2013-06-06 13:32:00,
2013-06-06 07:43:00,69.0,45.0,29.99,SSW,200,4.0,7.0,41,-99.99,,,-99.99,139.470001,,2013-06-06 13:43:00,
2013-06-06 07:53:00,69.0,45.0,29.99,SSW,200,4.0,7.0,41,-99.99,,,-99.99,139.470001,,2013-06-06 13:53:00,
2013-06-06 08:03:00,69.0,45.0,29.99,SSW,200,4.0,7.0,41,-99.99,,,-99.99,139.470001,,2013-06-06 14:03:00,
2013-06-06 08:13:00,73.0,45.0,30.00,South,187,8.0,13.0,36,-99.99,,,-99.99,238.490005,,2013-06-06 14:13:00,
2013-06-06 08:22:00,73.0,44.0,30.01,South,171,8.0,13.0,35,-99.99,,,-99.99,292.179993,,2013-06-06 14:22:00,
2013-06-06 08:33:00,74.0,44.0,30.02,SSE,165,8.0,13.0,33,-99.99,,,-99.99,342.390015,,2013-06-06 14:33:00,
2013-06-06 08:43:00,74.0,44.0,30.02,SSE,165,8.0,13.0,33,-99.99,,,-99.99,342.390015,,2013-06-06 14:43:00,
2013-06-06 08:53:00,74.0,44.0,30.02,SSE,165,8.0,13.0,33,-99.99,,,-99.99,342.390015,,2013-06-06 14:53:00,
2013-06-06 09:00:00,76.0,44.0,30.02,South,175,6.0,13.0,32,-99.99,,,-99.99,481.160004,,2013-06-06 15:00:00,
2013-06-06 09:03:00,74.0,44.0,30.02,SSE,165,8.0,13.0,33,-99.99,,,-99.99,342.390015,,2013-06-06 15:03:00,
2013-06-06 09:13:00,75.0,44.0,30.02,SSE,166,8.0,13.0,32,-99.99,,,-99.99,436.529999,,2013-06-06 15:13:00,
2013-06-06 09:23:00,76.0,44.0,30.02,South,175,6.0,13.0,32,-99.99,,,-99.99,481.160004,,2013-06-06 15:23:00,
2013-06-06 09:33:00,76.0,44.0,30.02,South,175,6.0,13.0,32,-99.99,,,-99.99,481.160004,,2013-06-06 15:33:00,
2013-06-06 09:43:00,76.0,44.0,30.02,South,175,6.0,13.0,32,-99.99,,,-99.99,481.160004,,2013-06-06 15:43:00,
2013-06-06 09:53:00,76.0,44.0,30.02,South,175,6.0,13.0,32,-99.99,,,-99.99,481.160004,,2013-06-06 15:53:00,
2013-06-06 10:12:00,78.0,44.0,30.02,SSE,166,8.0,14.0,30,-99.99,,,-99.99,613.650024,,2013-06-06 16:12:00,
2013-06-06 10:23:00,79.0,44.0,30.02,South,186,8.0,14.0,29,-99.99,,,-99.99,656.890015,,2013-06-06 16:23:00,
2013-06-06 10:33:00,80.0,44.0,30.02,SSE,160,8.0,28.0,28,-99.99,,,-99.99,695.940002,,2013-06-06 16:33:00,
2013-06-06 10:43:00,80.0,44.0,30.02,SSE,160,8.0,28.0,28,-99.99,,,-99.99,695.940002,,2013-06-06 16:43:00,
2013-06-06 10:53:00,80.0,44.0,30.02,SSE,160,8.0,28.0,28,-99.99,,,-99.99,695.940002,,2013-06-06 16:53:00,
2013-06-06 11:03:00,80.0,44.0,30.02,SSE,160,8.0,28.0,28,-99.99,,,-99.99,695.940002,,2013-06-06 17:03:00,
2013-06-06 11:13:00,81.0,45.0,30.02,SSE,168,10.0,18.0,28,-99.99,,,-99.99,768.460022,,2013-06-06 17:13:00,
2013-06-06 11:23:00,81.0,45.0,30.02,SSE,165,10.0,19.0,27,-99.99,,,-99.99,797.750000,,2013-06-06 17:23:00,
2013-06-06 11:33:00,81.0,45.0,30.02,SSE,165,10.0,19.0,27,-99.99,,,-99.99,797.750000,,2013-06-06 17:33:00,
2013-06-06 11:43:00,82.0,45.0,30.02,SE,136,11.0,20.0,27,-99.99,,,-99.99,785.890015,,2013-06-06 17:43:00,
2013-06-06 11:53:00,83.0,45.0,30.02,SSE,149,11.0,18.0,27,-99.99,,,-99.99,843.080017,,2013-06-06 17:53:00,
2013-06-06 12:03:00,83.0,45.0,30.02,SSE,149,11.0,18.0,27,-99.99,,,-99.99,843.080017,,2013-06-06 18:03:00,
2013-06-06 12:13:00,83.0,45.0,30.02,SE,136,11.0,20.0,27,-99.99,,,-99.99,825.640015,,2013-06-06 18:13:00,
2013-06-06 12:23:00,83.0,45.0,30.01,SE,146,11.0,19.0,26,-99.99,,,-99.99,877.940002,,2013-06-06 18:23:00,
2013-06-06 12:33:00,83.0,45.0,30.01,SE,146,11.0,19.0,26,-99.99,,,-99.99,877.940002,,2013-06-06 18:33:00,
2013-06-06 12:43:00,84.0,45.0,30.01,SE,129,11.0,18.0,26,-99.99,,,-99.99,910.020020,,2013-06-06 18:43:00,
2013-06-06 12:53:00,85.0,45.0,30.01,SE,128,10.0,19.0,25,-99.99,,,-99.99,923.270020,,2013-06-06 18:53:00,
2013-06-06 13:03:00,85.0,45.0,30.01,SE,128,10.0,19.0,25,-99.99,,,-99.99,923.270020,,2013-06-06 19:03:00,
2013-06-06 13:13:00,85.0,46.0,30.00,SSE,153,11.0,21.0,25,-99.99,,,-99.99,927.450012,,2013-06-06 19:13:00,
2013-06-06 13:23:00,85.0,46.0,30.00,SE,141,9.0,17.0,25,-99.99,,,-99.99,925.359985,,2013-06-06 19:23:00,
2013-06-06 13:33:00,85.0,46.0,30.00,SE,141,9.0,17.0,25,-99.99,,,-99.99,925.359985,,2013-06-06 19:33:00,
2013-06-06 13:43:00,86.0,45.0,29.99,SE,141,9.0,18.0,24,-99.99,,,-99.99,923.969971,,2013-06-06 19:43:00,
2013-06-06 13:53:00,86.0,45.0,29.99,SE,127,8.0,19.0,24,-99.99,,,-99.99,921.179993,,2013-06-06 19:53:00,
2013-06-06 14:03:00,86.0,45.0,29.99,SE,127,8.0,19.0,24,-99.99,,,-99.99,921.179993,,2013-06-06 20:03:00,
2013-06-06 14:13:00,87.0,46.0,29.99,SE,142,9.0,16.0,23,-99.99,,,-99.99,914.900024,,2013-06-06 20:13:00,
2013-06-06 14:23:00,87.0,45.0,29.98,SE,126,11.0,18.0,23,-99.99,,,-99.99,905.140015,,2013-06-06 20:23:00,
2013-06-06 14:33:00,87.0,45.0,29.98,SE,126,11.0,18.0,23,-99.99,,,-99.99,905.140015,,2013-06-06 20:33:00,
2013-06-06 14:42:00,88.0,45.0,29.98,SE,127,9.0,19.0,22,-99.99,,,-99.99,888.400024,,2013-06-06 20:42:00,
2013-06-06 14:53:00,88.0,45.0,29.98,SE,127,9.0,19.0,22,-99.99,,,-99.99,888.400024,,2013-06-06 20:53:00,
2013-06-06 15:03:00,88.0,45.0,29.98,SE,127,9.0,19.0,22,-99.99,,,-99.99,888.400024,,2013-06-06 21:03:00,
2013-06-06 15:13:00,88.0,44.0,29.96,SSE,147,9.0,18.0,21,-99.99,,,-99.99,836.099976,,2013-06-06 21:13:00,
2013-06-06 15:23:00,89.0,44.0,29.96,ESE,123,10.0,19.0,20,-99.99,,,-99.99,811.000000,,2013-06-06 21:23:00,
2013-06-06 15:33:00,89.0,44.0,29.96,ESE,123,10.0,19.0,20,-99.99,,,-99.99,811.000000,,2013-06-06 21:33:00,
2013-06-06 15:43:00,90.0,44.0,29.95,SE,145,9.0,21.0,20,-99.99,,,-99.99,797.750000,,2013-06-06 21:43:00,
2013-06-06 15:53:00,90.0,44.0,29.95,SE,145,9.0,21.0,20,-99.99,,,-99.99,797.750000,,2013-06-06 21:53:00,
2013-06-06 16:03:00,90.0,44.0,29.95,SE,145,9.0,21.0,20,-99.99,,,-99.99,797.750000,,2013-06-06 22:03:00,
2013-06-06 16:13:00,90.0,43.0,29.94,SE,137,5.0,15.0,19,-99.99,,,-99.99,730.109985,,2013-06-06 22:13:00,
2013-06-06 16:23:00,91.0,42.0,29.93,SE,135,10.0,21.0,18,-99.99,,,-99.99,659.679993,,2013-06-06 22:23:00,
2013-06-06 16:33:00,91.0,42.0,29.93,SE,135,10.0,21.0,18,-99.99,,,-99.99,659.679993,,2013-06-06 22:33:00,
2013-06-06 16:43:00,91.0,42.0,29.92,ESE,117,8.0,17.0,18,-99.99,,,-99.99,608.070007,,2013-06-06 22:43:00,
2013-06-06 16:53:00,91.0,41.0,29.92,SSE,150,7.0,15.0,17,-99.99,,,-99.99,453.269989,,2013-06-06 22:53:00,
2013-06-06 17:02:00,91.0,41.0,29.92,SSE,150,7.0,15.0,17,-99.99,,,-99.99,453.269989,,2013-06-06 23:02:00,
2013-06-06 17:12:00,92.0,40.0,29.91,SE,145,6.0,13.0,16,-99.99,,,-99.99,228.029999,,2013-06-06 23:12:00,
2013-06-06 17:22:00,92.0,39.0,29.90,SSE,163,5.0,15.0,15,-99.99,,,-99.99,504.869995,,2013-06-06 23:22:00,
2013-06-06 17:33:00,92.0,39.0,29.90,SSE,163,5.0,15.0,15,-99.99,,,-99.99,504.869995,,2013-06-06 23:33:00,
2013-06-06 17:43:00,92.0,38.0,29.90,SSE,151,10.0,18.0,15,-99.99,,,-99.99,488.829987,,2013-06-06 23:43:00,
2013-06-06 17:52:00,92.0,38.0,29.90,SSE,151,10.0,18.0,15,-99.99,,,-99.99,488.829987,,2013-06-06 23:52:00,
2013-06-06 18:02:00,92.0,38.0,29.90,SSE,151,10.0,18.0,15,-99.99,,,-99.99,488.829987,,2013-06-07 00:02:00,
2013-06-06 18:12:00,92.0,38.0,29.89,SSE,152,6.0,13.0,15,-99.99,,,-99.99,375.859985,,2013-06-07 00:12:00,
2013-06-06 18:22:00,92.0,39.0,29.89,SSE,158,11.0,19.0,15,-99.99,,,-99.99,94.839996,,2013-06-07 00:22:00,
2013-06-06 18:32:00,92.0,39.0,29.89,SSE,158,11.0,19.0,15,-99.99,,,-99.99,94.839996,,2013-06-07 00:32:00,
2013-06-06 18:42:00,92.0,39.0,29.89,SSE,158,11.0,19.0,15,-99.99,,,-99.99,94.839996,,2013-06-07 00:42:00,
2013-06-06 18:52:00,91.0,36.0,29.89,South,191,8.0,12.0,14,-99.99,,,-99.99,40.450001,,2013-06-07 00:52:00,
2013-06-06 19:02:00,91.0,36.0,29.89,South,191,8.0,12.0,14,-99.99,,,-99.99,40.450001,,2013-06-07 01:02:00,
2013-06-06 19:12:00,90.0,38.0,29.89,SE,140,7.0,14.0,16,-99.99,,,-99.99,50.209999,,2013-06-07 01:12:00,
2013-06-06 19:22:00,90.0,38.0,29.89,SE,125,9.0,16.0,15,-99.99,,,-99.99,43.230000,,2013-06-07 01:22:00,
2013-06-06 19:32:00,90.0,39.0,29.90,ESE,123,8.0,12.0,17,-99.99,,,-99.99,68.339996,,2013-06-07 01:32:00,
2013-06-06 19:42:00,90.0,39.0,29.90,ESE,123,8.0,12.0,17,-99.99,,,-99.99,68.339996,,2013-06-07 01:42:00,
2013-06-06 19:52:00,90.0,41.0,29.91,East,87,10.0,27.0,18,-99.99,,,-99.99,29.990000,,2013-06-07 01:52:00,
2013-06-06 20:02:00,90.0,41.0,29.91,East,87,10.0,27.0,18,-99.99,,,-99.99,29.990000,,2013-06-07 02:02:00,
2013-06-06 20:12:00,83.0,45.0,29.94,NNE,25,24.0,44.0,26,-99.99,,,-99.99,19.530001,,2013-06-07 02:12:00,
2013-06-06 20:22:00,74.0,51.0,29.96,North,6,27.0,42.0,43,-99.99,,,-99.99,11.160000,,2013-06-07 02:22:00,
2013-06-06 20:32:00,72.0,53.0,29.98,NNE,13,27.0,42.0,51,-99.99,,,-99.99,2.090000,,2013-06-07 02:32:00,
2013-06-06 20:52:00,68.0,54.0,29.99,NE,34,23.0,42.0,60,-99.99,,,-99.99,0.700000,,2013-06-07 02:52:00,
2013-06-06 21:02:00,68.0,54.0,29.99,NE,34,23.0,42.0,60,-99.99,,,-99.99,0.700000,,2013-06-07 03:02:00,
2013-06-06 21:12:00,67.0,53.0,29.97,ENE,60,26.0,42.0,60,-99.99,,,-99.99,0.000000,,2013-06-07 03:12:00,
2013-06-06 21:22:00,71.0,51.0,29.96,ENE,72,21.0,36.0,48,-99.99,,,-99.99,0.000000,,2013-06-07 03:22:00,
2013-06-06 21:33:00,75.0,48.0,29.95,East,86,12.0,30.0,38,-99.99,,,-99.99,0.000000,,2013-06-07 03:33:00,
2013-06-06 21:43:00,75.0,48.0,29.95,East,86,12.0,30.0,38,-99.99,,,-99.99,0.000000,,2013-06-07 03:43:00,
2013-06-06 21:53:00,75.0,48.0,29.95,East,86,12.0,30.0,38,-99.99,,,-99.99,0.000000,,2013-06-07 03:53:00,
2013-06-06 22:03:00,75.0,48.0,29.95,East,86,12.0,30.0,38,-99.99,,,-99.99,0.000000,,2013-06-07 04:03:00,
2013-06-06 22:12:00,74.0,51.0,29.98,NW,326,12.0,18.0,44,-99.99,,,-99.99,0.000000,,2013-06-07 04:12:00,
2013-06-06 22:23:00,73.0,52.0,29.99,NNW,331,12.0,19.0,47,-99.99,,,-99.99,0.000000,,2013-06-07 04:23:00,
2013-06-06 22:33:00,76.0,46.0,30.00,ENE,68,8.0,21.0,34,-99.99,,,-99.99,0.000000,,2013-06-07 04:33:00,
2013-06-06 22:42:00,76.0,46.0,30.00,ENE,68,8.0,21.0,34,-99.99,,,-99.99,0.000000,,2013-06-07 04:42:00,
2013-06-06 22:53:00,76.0,46.0,30.00,ENE,68,8.0,21.0,34,-99.99,,,-99.99,0.000000,,2013-06-07 04:53:00,
2013-06-06 23:03:00,76.0,46.0,30.00,ENE,68,8.0,21.0,34,-99.99,,,-99.99,0.000000,,2013-06-07 05:03:00,
2013-06-06 23:12:00,77.0,46.0,30.01,East,85,9.0,21.0,32,-99.99,,,-99.99,0.000000,,2013-06-07 05:12:00,
2013-06-06 23:22:00,77.0,46.0,30.01,East,85,9.0,21.0,32,-99.99,,,-99.99,0.000000,,2013-06-07 05:22:00,
2013-06-06 23:32:00,74.0,50.0,29.99,West,269,7.0,8.0,43,-99.99,,,-99.99,0.000000,,2013-06-07 05:32:00,
2013-06-06 23:42:00,74.0,50.0,29.99,West,269,7.0,8.0,43,-99.99,,,-99.99,0.000000,,2013-06-07 05:42:00,
2013-06-06 23:52:00,74.0,50.0,29.99,West,269,7.0,8.0,43,-99.99,,,-99.99,0.000000,,2013-06-07 05:52:00,